createdAt,value
2022-09-12T00:00:10.176Z,16.82
2022-09-12T00:03:03.630Z,16.90
2022-09-12T00:05:35.802Z,16.86
2022-09-12T00:08:08.139Z,16.90
2022-09-12T00:10:43.902Z,16.88
2022-09-12T00:13:16.060Z,16.84
2022-09-12T00:15:48.218Z,16.85
2022-09-12T00:18:20.555Z,16.87
2022-09-12T00:20:53.749Z,16.88
2022-09-12T00:23:25.769Z,16.87
2022-09-12T00:25:57.697Z,16.80
2022-09-12T00:28:29.851Z,16.68
2022-09-12T00:31:05.094Z,16.79
2022-09-12T00:33:37.943Z,16.76
2022-09-12T00:36:12.558Z,16.74
2022-09-12T00:38:45.286Z,16.70
2022-09-12T00:41:20.290Z,16.73
2022-09-12T00:43:53.371Z,16.77
2022-09-12T00:46:42.825Z,16.74
2022-09-12T00:49:22.039Z,16.63
2022-09-12T00:51:59.916Z,16.63
2022-09-12T00:54:37.530Z,16.56
2022-09-12T00:57:13.316Z,16.62
2022-09-12T00:59:49.374Z,16.62
2022-09-12T01:02:22.137Z,16.60
2022-09-12T01:04:55.734Z,16.55
2022-09-12T01:07:28.176Z,16.50
2022-09-12T01:10:00.427Z,16.43
2022-09-12T01:12:33.187Z,16.41
2022-09-12T01:15:05.666Z,16.46
2022-09-12T01:17:50.116Z,16.49
2022-09-12T01:20:41.382Z,16.48
2022-09-12T01:23:34.081Z,16.35
2022-09-12T01:26:29.301Z,16.48
2022-09-12T01:29:26.931Z,16.48
2022-09-12T01:32:09.956Z,16.45
2022-09-12T01:34:49.146Z,16.44
2022-09-12T01:37:31.604Z,16.32
2022-09-12T01:40:14.299Z,16.43
2022-09-12T01:42:54.755Z,16.38
2022-09-12T01:45:33.879Z,16.44
2022-09-12T01:48:13.407Z,16.44
2022-09-12T01:50:52.751Z,16.41
2022-09-12T01:53:28.539Z,16.43
2022-09-12T01:56:07.401Z,16.39
2022-09-12T01:58:45.215Z,16.38
2022-09-12T02:01:22.923Z,16.39
2022-09-12T02:04:05.837Z,16.42
2022-09-12T02:06:42.983Z,16.39
2022-09-12T02:09:22.369Z,16.39
2022-09-12T02:11:58.634Z,16.35
2022-09-12T02:14:33.474Z,16.38
2022-09-12T02:17:08.824Z,16.40
2022-09-12T02:19:47.380Z,16.38
2022-09-12T02:22:22.950Z,16.38
2022-09-12T02:24:58.863Z,16.33
2022-09-12T02:27:38.189Z,16.35
2022-09-12T02:30:14.412Z,16.29
2022-09-12T02:32:59.848Z,16.29
2022-09-12T02:35:39.120Z,16.28
2022-09-12T02:38:15.966Z,16.28
2022-09-12T02:40:48.916Z,16.25
2022-09-12T02:43:21.141Z,16.22
2022-09-12T02:45:55.040Z,16.21
2022-09-12T02:48:31.163Z,16.11
2022-09-12T02:51:03.595Z,16.11
2022-09-12T02:53:37.088Z,16.24
2022-09-12T02:56:14.638Z,16.23
2022-09-12T02:58:47.563Z,16.23
2022-09-12T03:01:30.297Z,16.22
2022-09-12T03:04:33.540Z,16.19
2022-09-12T03:07:16.547Z,16.17
2022-09-12T03:10:00.136Z,16.11
2022-09-12T03:12:48.119Z,16.05
2022-09-12T03:15:35.126Z,16.04
2022-09-12T03:18:26.265Z,16.06
2022-09-12T03:21:09.613Z,16.05
2022-09-12T03:23:47.804Z,16.01
2022-09-12T03:26:27.352Z,16.02
2022-09-12T03:29:01.343Z,15.98
2022-09-12T03:31:33.461Z,16.01
2022-09-12T03:34:06.017Z,16.01
2022-09-12T03:36:39.809Z,16.02
2022-09-12T03:39:12.455Z,16.03
2022-09-12T03:41:44.597Z,15.96
2022-09-12T03:44:18.013Z,15.96
2022-09-12T03:46:50.646Z,15.98
2022-09-12T03:49:22.628Z,15.99
2022-09-12T03:51:54.814Z,15.99
2022-09-12T03:54:27.342Z,16.02
2022-09-12T03:56:59.248Z,16.02
2022-09-12T03:59:31.592Z,15.99
2022-09-12T04:02:03.800Z,15.96
2022-09-12T04:04:35.942Z,15.99
2022-09-12T04:07:08.190Z,16.08
2022-09-12T04:09:40.260Z,16.06
2022-09-12T04:12:12.776Z,16.02
2022-09-12T04:14:44.995Z,16.05
2022-09-12T04:17:17.133Z,16.06
2022-09-12T04:19:49.135Z,16.05
2022-09-12T04:22:21.197Z,16.01
2022-09-12T04:24:53.219Z,16.14
2022-09-12T04:27:26.658Z,16.14
2022-09-12T04:29:59.630Z,16.12
2022-09-12T04:32:32.504Z,16.08
2022-09-12T04:35:04.899Z,16.10
2022-09-12T04:37:37.131Z,16.15
2022-09-12T04:40:10.499Z,16.18
2022-09-12T04:42:42.580Z,16.22
2022-09-12T04:45:16.781Z,16.16
2022-09-12T04:47:48.983Z,16.24
2022-09-12T04:50:21.694Z,16.25
2022-09-12T04:52:54.381Z,16.26
2022-09-12T04:55:26.605Z,16.26
2022-09-12T04:57:58.617Z,16.26
2022-09-12T05:00:30.737Z,16.27
2022-09-12T05:03:02.953Z,16.23
2022-09-12T05:05:34.935Z,16.24
2022-09-12T05:08:06.889Z,16.26
2022-09-12T05:10:39.214Z,16.21
2022-09-12T05:13:11.398Z,16.09
2022-09-12T05:15:43.714Z,16.14
2022-09-12T05:18:15.657Z,16.19
2022-09-12T05:20:47.649Z,16.20
2022-09-12T05:23:19.708Z,16.09
2022-09-12T05:25:57.645Z,16.11
2022-09-12T05:28:32.946Z,16.18
2022-09-12T05:31:06.626Z,16.15
2022-09-12T05:33:40.728Z,16.21
2022-09-12T05:36:15.603Z,16.19
2022-09-12T05:38:48.155Z,16.19
2022-09-12T05:41:24.973Z,16.20
2022-09-12T05:44:00.784Z,16.18
2022-09-12T05:46:38.093Z,16.13
2022-09-12T05:49:12.206Z,16.24
2022-09-12T05:51:45.977Z,16.21
2022-09-12T05:54:19.479Z,16.21
2022-09-12T05:56:51.515Z,16.25
2022-09-12T05:59:24.216Z,16.33
2022-09-12T06:01:56.317Z,16.31
2022-09-12T06:04:29.406Z,16.31
2022-09-12T06:07:01.601Z,16.24
2022-09-12T06:09:33.608Z,16.18
2022-09-12T06:12:06.461Z,16.20
2022-09-12T06:14:39.246Z,16.25
2022-09-12T06:17:11.390Z,16.26
2022-09-12T06:19:43.441Z,16.20
2022-09-12T06:22:15.604Z,16.27
2022-09-12T06:24:47.711Z,16.43
2022-09-12T06:27:19.778Z,16.39
2022-09-12T06:29:51.736Z,16.45
2022-09-12T06:32:23.637Z,16.44
2022-09-12T06:34:55.870Z,16.48
2022-09-12T06:37:28.514Z,16.54
2022-09-12T06:40:02.003Z,16.56
2022-09-12T06:42:34.835Z,16.63
2022-09-12T06:45:07.805Z,16.67
2022-09-12T06:47:39.925Z,16.72
2022-09-12T06:50:12.809Z,16.75
2022-09-12T06:52:45.568Z,16.76
2022-09-12T06:55:20.406Z,16.79
2022-09-12T06:57:55.512Z,16.81
2022-09-12T07:00:27.574Z,16.86
2022-09-12T07:02:59.783Z,16.89
2022-09-12T07:05:31.864Z,16.87
2022-09-12T07:08:04.109Z,16.88
2022-09-12T07:10:36.214Z,16.81
2022-09-12T07:13:08.199Z,16.88
2022-09-12T07:15:40.496Z,16.95
2022-09-12T07:18:14.108Z,16.95
2022-09-12T07:20:46.358Z,17.02
2022-09-12T07:23:18.376Z,17.03
2022-09-12T07:25:57.318Z,17.08
2022-09-12T07:28:30.801Z,17.08
2022-09-12T07:31:10.863Z,17.13
2022-09-12T07:33:44.127Z,17.16
2022-09-12T07:36:18.040Z,17.21
2022-09-12T07:38:50.207Z,17.26
2022-09-12T07:41:25.059Z,17.29
2022-09-12T07:43:56.817Z,17.38
2022-09-12T07:46:31.433Z,17.40
2022-09-12T07:49:05.699Z,17.46
2022-09-12T07:51:37.867Z,17.57
2022-09-12T07:54:11.978Z,17.67
2022-09-12T07:56:44.476Z,17.70
2022-09-12T07:59:35.382Z,17.66
2022-09-12T08:02:16.610Z,17.78
2022-09-12T08:04:49.841Z,17.82
2022-09-12T08:07:22.016Z,17.91
2022-09-12T08:09:54.594Z,17.97
2022-09-12T08:12:26.645Z,17.97
2022-09-12T08:14:58.589Z,17.96
2022-09-12T08:17:31.173Z,18.02
2022-09-12T08:20:04.295Z,18.08
2022-09-12T08:22:36.495Z,18.13
2022-09-12T08:25:10.248Z,18.16
2022-09-12T08:27:43.084Z,18.12
2022-09-12T08:30:16.906Z,18.12
2022-09-12T08:32:49.157Z,18.14
2022-09-12T08:35:21.323Z,18.20
2022-09-12T08:37:53.385Z,18.22
2022-09-12T08:40:25.913Z,18.24
2022-09-12T08:43:04.695Z,18.32
2022-09-12T08:45:44.537Z,18.38
2022-09-12T08:48:17.224Z,18.43
2022-09-12T08:50:50.121Z,18.46
2022-09-12T08:53:28.151Z,18.45
2022-09-12T08:56:02.064Z,18.44
2022-09-12T08:58:40.706Z,18.48
2022-09-12T09:01:24.800Z,18.54
2022-09-12T09:04:28.929Z,18.63
2022-09-12T09:07:16.976Z,18.70
2022-09-12T09:10:05.605Z,18.75
2022-09-12T09:12:45.992Z,18.83
2022-09-12T09:15:34.270Z,19.01
2022-09-12T09:18:12.066Z,19.06
2022-09-12T09:20:49.806Z,18.97
2022-09-12T09:23:28.039Z,19.01
2022-09-12T09:26:07.240Z,19.02
2022-09-12T09:28:46.499Z,19.15
2022-09-12T09:31:20.967Z,19.22
2022-09-12T09:33:55.430Z,19.32
2022-09-12T09:36:35.823Z,19.29
2022-09-12T09:39:16.349Z,19.48
2022-09-12T09:42:03.811Z,19.75
2022-09-12T09:44:36.189Z,19.89
2022-09-12T09:47:11.790Z,19.87
2022-09-12T09:49:44.010Z,19.84
2022-09-12T09:52:18.061Z,19.80
2022-09-12T09:54:57.640Z,19.83
2022-09-12T09:57:44.662Z,19.81
2022-09-12T10:00:27.226Z,19.75
2022-09-12T10:03:18.967Z,19.85
2022-09-12T10:05:53.331Z,19.80
2022-09-12T10:08:27.936Z,19.68
2022-09-12T10:11:03.109Z,19.67
2022-09-12T10:13:40.898Z,19.74
2022-09-12T10:16:24.141Z,19.91
2022-09-12T10:18:57.791Z,19.88
2022-09-12T10:21:35.275Z,20.25
2022-09-12T10:24:22.930Z,20.46
2022-09-12T10:26:57.830Z,20.53
2022-09-12T10:29:31.514Z,20.42
2022-09-12T10:32:08.358Z,20.32
2022-09-12T10:34:45.107Z,20.22
2022-09-12T10:37:34.607Z,20.00
2022-09-12T10:40:22.920Z,19.96
2022-09-12T10:42:57.033Z,20.00
2022-09-12T10:45:32.335Z,20.11
2022-09-12T10:48:23.224Z,20.32
2022-09-12T10:50:55.348Z,20.63
2022-09-12T10:53:34.111Z,20.90
2022-09-12T10:56:12.107Z,21.15
2022-09-12T10:59:00.999Z,21.23
2022-09-12T11:01:42.229Z,21.05
2022-09-12T11:04:27.721Z,20.83
2022-09-12T11:07:19.797Z,20.70
2022-09-12T11:10:00.859Z,20.68
2022-09-12T11:12:40.743Z,20.85
2022-09-12T11:15:31.113Z,21.12
2022-09-12T11:18:10.232Z,21.37
2022-09-12T11:20:59.750Z,21.59
2022-09-12T11:24:05.024Z,21.75
2022-09-12T11:26:58.420Z,21.59
2022-09-12T11:29:45.861Z,21.74
2022-09-12T11:32:46.314Z,21.56
2022-09-12T11:35:26.248Z,21.50
2022-09-12T11:38:14.956Z,21.49
2022-09-12T11:40:52.271Z,21.40
2022-09-12T11:43:36.811Z,21.18
2022-09-12T11:46:11.767Z,21.03
2022-09-12T11:48:51.111Z,21.04
2022-09-12T11:51:26.891Z,21.49
2022-09-12T11:54:06.324Z,21.59
2022-09-12T11:56:44.196Z,21.47
2022-09-12T11:59:25.957Z,21.52
2022-09-12T12:02:01.325Z,21.47
2022-09-12T12:04:40.759Z,21.45
2022-09-12T12:07:18.039Z,21.55
2022-09-12T12:09:53.524Z,21.45
2022-09-12T12:12:29.843Z,21.38
2022-09-12T12:15:03.150Z,21.52
2022-09-12T12:17:35.806Z,21.72
2022-09-12T12:20:17.239Z,21.64
2022-09-12T12:22:56.172Z,21.67
2022-09-12T12:25:41.941Z,21.66
2022-09-12T12:28:34.932Z,21.86
2022-09-12T12:31:07.521Z,21.80
2022-09-12T12:34:16.381Z,21.59
2022-09-12T12:36:50.615Z,21.49
2022-09-12T12:39:56.344Z,21.86
2022-09-12T12:43:05.046Z,22.09
2022-09-12T12:46:06.163Z,22.15
2022-09-12T12:48:51.517Z,22.34
2022-09-12T12:51:44.867Z,22.42
2022-09-12T12:54:50.676Z,22.63
2022-09-12T12:57:48.106Z,22.68
2022-09-12T13:00:35.942Z,22.80
2022-09-12T13:03:23.649Z,22.86
2022-09-12T13:06:01.634Z,22.71
2022-09-12T13:08:36.356Z,22.60
2022-09-12T13:11:13.227Z,22.45
2022-09-12T13:13:53.876Z,22.50
2022-09-12T13:16:35.482Z,22.63
2022-09-12T13:19:17.971Z,22.46
2022-09-12T13:22:01.067Z,22.42
2022-09-12T13:24:33.323Z,22.27
2022-09-12T13:27:16.628Z,22.13
2022-09-12T13:29:48.702Z,21.93
2022-09-12T13:32:21.091Z,21.77
2022-09-12T13:35:09.589Z,21.70
2022-09-12T13:37:51.576Z,21.61
2022-09-12T13:40:34.813Z,21.52
2022-09-12T13:43:16.451Z,21.44
2022-09-12T13:45:49.936Z,21.36
2022-09-12T13:48:26.867Z,21.29
2022-09-12T13:51:01.728Z,21.25
2022-09-12T13:53:42.367Z,21.18
2022-09-12T13:56:19.204Z,21.07
2022-09-12T13:58:59.254Z,20.98
2022-09-12T14:01:42.729Z,20.90
2022-09-12T14:04:38.382Z,20.87
2022-09-12T14:07:15.036Z,20.89
2022-09-12T14:09:54.472Z,20.92
2022-09-12T14:12:30.346Z,20.94
2022-09-12T14:15:02.915Z,20.94
2022-09-12T14:17:39.690Z,20.98
2022-09-12T14:20:18.589Z,20.99
2022-09-12T14:22:52.164Z,21.01
2022-09-12T14:25:29.682Z,21.02
2022-09-12T14:28:02.028Z,21.00
2022-09-12T14:30:36.377Z,21.04
2022-09-12T14:33:22.231Z,21.10
2022-09-12T14:36:09.216Z,21.20
2022-09-12T14:38:45.402Z,21.13
2022-09-12T14:41:25.507Z,21.08
2022-09-12T14:44:01.225Z,21.04
2022-09-12T14:46:36.897Z,21.01
2022-09-12T14:49:16.729Z,20.98
2022-09-12T14:51:57.040Z,20.93
2022-09-12T14:54:44.514Z,20.90
2022-09-12T14:57:38.966Z,20.86
2022-09-12T15:00:22.298Z,20.82
2022-09-12T15:02:55.754Z,20.66
2022-09-12T15:05:29.580Z,20.71
2022-09-12T15:08:02.792Z,20.65
2022-09-12T15:10:38.635Z,20.60
2022-09-12T15:13:17.105Z,20.59
2022-09-12T15:15:51.410Z,20.52
2022-09-12T15:18:25.924Z,20.51
2022-09-12T15:21:03.031Z,20.46
2022-09-12T15:23:40.239Z,20.35
2022-09-12T15:26:13.550Z,20.38
2022-09-12T15:28:47.615Z,20.33
2022-09-12T15:31:26.774Z,20.27
2022-09-12T15:34:00.453Z,20.22
2022-09-12T15:36:33.380Z,20.16
2022-09-12T15:39:05.527Z,20.04
2022-09-12T15:41:39.399Z,20.02
2022-09-12T15:44:14.842Z,20.02
2022-09-12T15:46:47.692Z,19.99
2022-09-12T15:49:19.681Z,19.95
2022-09-12T15:51:51.689Z,19.95
2022-09-12T15:54:23.863Z,19.93
2022-09-12T15:56:56.114Z,19.89
2022-09-12T15:59:28.311Z,19.90
2022-09-12T16:02:00.513Z,19.87
2022-09-12T16:04:33.028Z,19.84
2022-09-12T16:07:05.334Z,19.82
2022-09-12T16:09:37.649Z,19.81
2022-09-12T16:12:10.974Z,19.83
2022-09-12T16:14:43.169Z,19.78
2022-09-12T16:17:15.880Z,19.67
2022-09-12T16:19:48.395Z,19.72
2022-09-12T16:22:20.663Z,19.72
2022-09-12T16:24:53.208Z,19.70
2022-09-12T16:27:25.686Z,19.69
2022-09-12T16:29:57.981Z,19.70
2022-09-12T16:32:30.047Z,19.64
2022-09-12T16:35:02.463Z,19.65
2022-09-12T16:37:35.826Z,19.64
2022-09-12T16:40:10.257Z,19.63
2022-09-12T16:42:43.836Z,19.59
2022-09-12T16:45:16.588Z,19.57
2022-09-12T16:47:49.059Z,19.61
2022-09-12T16:50:21.364Z,19.58
2022-09-12T16:52:53.409Z,19.52
2022-09-12T16:55:25.950Z,19.48
2022-09-12T16:57:57.889Z,19.43
2022-09-12T17:00:29.830Z,19.41
2022-09-12T17:03:03.167Z,19.41
2022-09-12T17:05:35.177Z,19.39
2022-09-12T17:08:08.344Z,19.36
2022-09-12T17:10:43.640Z,19.28
2022-09-12T17:13:15.988Z,19.23
2022-09-12T17:15:48.272Z,19.17
2022-09-12T17:18:20.403Z,19.16
2022-09-12T17:20:52.720Z,19.11
2022-09-12T17:23:24.811Z,18.99
2022-09-12T17:25:56.904Z,18.93
2022-09-12T17:28:29.459Z,18.93
2022-09-12T17:31:04.529Z,18.94
2022-09-12T17:33:35.175Z,18.93
2022-09-12T17:36:11.229Z,18.88
2022-09-12T17:38:44.419Z,18.87
2022-09-12T17:41:18.646Z,18.80
2022-09-12T17:43:52.898Z,18.76
2022-09-12T17:46:26.929Z,18.73
2022-09-12T17:49:01.252Z,18.71
2022-09-12T17:51:34.016Z,18.70
2022-09-12T17:54:08.481Z,18.69
2022-09-12T17:56:41.247Z,18.67
2022-09-12T17:59:18.842Z,18.64
2022-09-12T18:02:09.198Z,18.59
2022-09-12T18:04:41.803Z,18.47
2022-09-12T18:07:14.354Z,18.33
2022-09-12T18:09:47.723Z,18.24
2022-09-12T18:12:20.967Z,18.31
2022-09-12T18:14:53.875Z,18.29
2022-09-12T18:17:26.199Z,18.27
2022-09-12T18:19:58.542Z,18.23
2022-09-12T18:22:30.616Z,18.20
2022-09-12T18:25:02.649Z,18.17
2022-09-12T18:27:34.694Z,18.13
2022-09-12T18:30:21.261Z,18.10
2022-09-12T18:32:53.766Z,18.08
2022-09-12T18:35:25.887Z,18.05
2022-09-12T18:37:58.035Z,18.01
2022-09-12T18:40:30.074Z,18.00
2022-09-12T18:43:02.106Z,17.99
2022-09-12T18:45:34.905Z,17.97
2022-09-12T18:48:08.110Z,17.95
2022-09-12T18:50:40.495Z,17.91
2022-09-12T18:53:12.568Z,17.87
2022-09-12T18:55:45.076Z,17.84
2022-09-12T18:58:17.682Z,17.72
2022-09-12T19:00:49.878Z,17.75
2022-09-12T19:03:21.846Z,17.71
2022-09-12T19:05:53.986Z,17.70
2022-09-12T19:08:26.141Z,17.69
2022-09-12T19:10:59.306Z,17.64
2022-09-12T19:13:32.051Z,17.60
2022-09-12T19:16:05.635Z,17.56
2022-09-12T19:18:39.034Z,17.56
2022-09-12T19:21:15.060Z,17.54
2022-09-12T19:23:47.542Z,17.53
2022-09-12T19:26:20.895Z,17.51
2022-09-12T19:28:54.635Z,17.47
2022-09-12T19:31:27.307Z,17.44
2022-09-12T19:34:03.436Z,17.43
2022-09-12T19:36:51.439Z,17.40
2022-09-12T19:39:24.009Z,17.34
2022-09-12T19:41:56.475Z,17.29
2022-09-12T19:44:29.339Z,17.27
2022-09-12T19:47:01.603Z,17.23
2022-09-12T19:49:34.745Z,17.21
2022-09-12T19:52:06.952Z,17.17
2022-09-12T19:54:39.112Z,17.18
2022-09-12T19:57:11.200Z,17.15
2022-09-12T19:59:43.191Z,17.12
2022-09-12T20:02:16.032Z,17.09
2022-09-12T20:04:48.482Z,17.09
2022-09-12T20:07:20.540Z,17.08
2022-09-12T20:09:52.911Z,16.98
2022-09-12T20:12:24.903Z,17.01
2022-09-12T20:14:57.167Z,17.01
2022-09-12T20:17:29.798Z,16.98
2022-09-12T20:20:02.305Z,16.95
2022-09-12T20:22:39.342Z,16.93
2022-09-12T20:25:12.435Z,16.90
2022-09-12T20:27:44.550Z,16.89
2022-09-12T20:30:17.264Z,16.88
2022-09-12T20:32:50.313Z,16.79
2022-09-12T20:35:23.236Z,16.89
2022-09-12T20:37:55.366Z,16.87
2022-09-12T20:40:27.492Z,16.87
2022-09-12T20:42:59.685Z,16.76
2022-09-12T20:45:31.826Z,16.83
2022-09-12T20:48:04.986Z,16.80
2022-09-12T20:50:37.329Z,16.76
2022-09-12T20:53:09.957Z,16.78
2022-09-12T20:55:42.350Z,16.72
2022-09-12T20:58:14.875Z,16.64
2022-09-12T21:00:47.409Z,16.65
2022-09-12T21:03:20.035Z,16.55
2022-09-12T21:05:52.023Z,16.54
2022-09-12T21:08:24.036Z,16.55
2022-09-12T21:10:56.027Z,16.55
2022-09-12T21:13:28.155Z,16.51
2022-09-12T21:16:04.766Z,16.48
2022-09-12T21:18:37.764Z,16.45
2022-09-12T21:21:11.186Z,16.46
2022-09-12T21:23:43.838Z,16.43
2022-09-12T21:26:16.046Z,16.40
2022-09-12T21:28:49.150Z,16.37
2022-09-12T21:31:21.560Z,16.34
2022-09-12T21:33:54.028Z,16.33
2022-09-12T21:36:26.595Z,16.31
2022-09-12T21:39:01.204Z,16.22
2022-09-12T21:41:33.190Z,16.29
2022-09-12T21:44:05.545Z,16.29
2022-09-12T21:46:37.711Z,16.28
2022-09-12T21:49:09.817Z,16.26
2022-09-12T21:51:42.012Z,16.26
2022-09-12T21:54:14.063Z,16.26
2022-09-12T21:56:46.067Z,16.23
2022-09-12T21:59:18.001Z,16.20
2022-09-12T22:01:50.339Z,16.19
2022-09-12T22:04:22.730Z,16.18
2022-09-12T22:06:54.638Z,16.18
2022-09-12T22:09:26.720Z,16.19
2022-09-12T22:11:58.680Z,16.18
2022-09-12T22:14:31.230Z,16.16
2022-09-12T22:17:03.740Z,16.11
2022-09-12T22:19:37.629Z,16.05
2022-09-12T22:22:27.680Z,16.02
2022-09-12T22:24:59.734Z,16.01
2022-09-12T22:27:31.665Z,15.99
2022-09-12T22:30:03.690Z,15.97
2022-09-12T22:32:38.300Z,15.97
2022-09-12T22:35:10.902Z,15.94
2022-09-12T22:37:43.366Z,15.93
2022-09-12T22:40:15.705Z,15.93
2022-09-12T22:42:48.188Z,15.94
2022-09-12T22:45:21.031Z,15.93
2022-09-12T22:47:53.052Z,15.92
2022-09-12T22:50:25.271Z,15.92
2022-09-12T22:52:58.314Z,15.91
2022-09-12T22:55:30.543Z,15.92
2022-09-12T22:58:03.704Z,15.82
2022-09-12T23:00:36.366Z,15.89
2022-09-12T23:03:08.547Z,15.88
2022-09-12T23:05:40.948Z,15.88
2022-09-12T23:08:12.885Z,15.82
2022-09-12T23:10:45.518Z,15.77
2022-09-12T23:13:17.526Z,15.84
2022-09-12T23:15:49.863Z,15.85
2022-09-12T23:18:21.779Z,15.79
2022-09-12T23:21:02.141Z,15.85
2022-09-12T23:23:35.503Z,15.85
2022-09-12T23:26:13.352Z,15.86
2022-09-12T23:28:50.769Z,15.85
2022-09-12T23:31:24.042Z,15.85
2022-09-12T23:33:56.953Z,15.83
2022-09-12T23:36:29.815Z,15.78
2022-09-12T23:39:02.237Z,15.79
2022-09-12T23:41:34.318Z,15.76
2022-09-12T23:44:06.702Z,15.76
2022-09-12T23:46:39.086Z,15.78
2022-09-12T23:49:10.985Z,15.80
2022-09-12T23:51:43.145Z,15.81
2022-09-12T23:54:15.496Z,15.82
2022-09-12T23:56:48.060Z,15.79
2022-09-12T23:59:19.981Z,15.78
